Time;durP1;ratioP1;P1;durP2;ratioP2;P2;SDS_P1;SDS_P2;PMS_P1;PMS_P2;Temp;Humidity;BMP_temperature;BMP_pressure;BME280_temperature;BME280_humidity;BME280_pressure;Samples;Min_cycle;Max_cycle;Signal;HPM_P1;HPM_P2
2022/03/28 00:00:30;;;;;;;71.90;33.92;;;;;;;9.07;45.34;100978.72;4469370;32;34482;-76
2022/03/28 00:03:01;;;;;;;48.95;23.30;;;;;;;9.01;45.22;100969.31;4456519;32;32459;-76
2022/03/28 00:05:31;;;;;;;40.72;18.45;;;;;;;8.96;45.40;100966.22;4470502;32;33370;-76
2022/03/28 00:07:59;;;;;;;47.20;23.58;;;;;;;8.81;45.48;100979.69;4469481;32;33739;-77
2022/03/28 00:10:27;;;;;;;31.85;17.92;;;;;;;8.97;46.62;100975.28;4456580;32;34583;-78
2022/03/28 00:12:55;;;;;;;29.90;16.10;;;;;;;8.91;45.88;100965.84;4462037;32;33893;-75
2022/03/28 00:15:23;;;;;;;30.73;14.80;;;;;;;8.83;45.75;100976.78;4482227;32;33154;-75
2022/03/28 00:17:50;;;;;;;28.42;14.10;;;;;;;8.95;45.49;100974.59;4471699;32;33060;-75
2022/03/28 00:20:18;;;;;;;31.02;15.40;;;;;;;8.79;45.63;100973.50;4472131;32;33054;-75
2022/03/28 00:22:45;;;;;;;28.20;15.45;;;;;;;8.78;45.50;100966.31;4484947;32;34768;-75
2022/03/28 00:25:13;;;;;;;30.40;16.65;;;;;;;8.75;45.50;100971.28;4486201;32;33193;-75
2022/03/28 00:27:46;;;;;;;29.00;15.77;;;;;;;8.69;45.64;100959.09;4484862;32;32369;-75
2022/03/28 00:30:13;;;;;;;29.45;14.93;;;;;;;8.80;45.48;100963.44;4471909;32;33959;-75
2022/03/28 00:32:41;;;;;;;22.33;12.30;;;;;;;8.53;46.04;100956.31;4471728;32;32891;-75
2022/03/28 00:35:09;;;;;;;17.60;10.88;;;;;;;8.50;46.25;100962.09;4459084;32;31712;-75
2022/03/28 00:37:38;;;;;;;21.12;11.23;;;;;;;8.54;46.05;100953.41;4471925;32;32216;-75
2022/03/28 00:40:06;;;;;;;19.45;11.30;;;;;;;8.55;45.92;100949.66;4472213;32;34147;-75
2022/03/28 00:42:34;;;;;;;17.45;9.25;;;;;;;8.50;45.92;100940.22;4472098;32;33368;-75
2022/03/28 00:45:06;;;;;;;16.30;8.10;;;;;;;8.54;45.76;100944.34;4485183;32;33187;-76
2022/03/28 00:47:34;;;;;;;16.17;8.55;;;;;;;8.51;45.77;100939.19;4485344;32;34630;-75
2022/03/28 00:50:03;;;;;;;14.45;7.93;;;;;;;8.51;45.73;100941.94;4484955;32;34300;-75
2022/03/28 00:52:32;;;;;;;14.93;6.25;;;;;;;8.50;45.66;100932.00;4484891;32;33944;-75
2022/03/28 00:55:00;;;;;;;15.93;8.75;;;;;;;8.37;45.71;100934.38;4471862;32;31905;-75
2022/03/28 00:57:29;;;;;;;19.87;9.82;;;;;;;8.38;45.48;100931.47;4478484;32;34743;-75
2022/03/28 00:59:58;;;;;;;18.75;9.30;;;;;;;8.21;45.79;100925.03;4456200;32;33910;-75
2022/03/28 01:02:26;;;;;;;14.38;8.38;;;;;;;8.15;45.86;100933.91;4469081;32;34011;-75
2022/03/28 01:04:54;;;;;;;18.15;9.55;;;;;;;8.20;45.65;100928.78;4471363;32;33329;-75
2022/03/28 01:07:24;;;;;;;18.05;9.05;;;;;;;8.30;45.44;100930.56;4456369;32;33080;-75
2022/03/28 01:09:54;;;;;;;14.60;9.05;;;;;;;8.06;46.00;100926.66;4456719;32;34480;-75
2022/03/28 01:12:23;;;;;;;15.40;8.27;;;;;;;8.24;45.49;100921.97;4469131;32;34082;-75
2022/03/28 01:14:51;;;;;;;14.93;8.40;;;;;;;7.96;45.93;100922.34;4466952;32;33143;-75
2022/03/28 01:20:06;;;;;;;13.23;6.78;;;;;;;8.09;45.68;100904.47;4457899;32;33919;-75
2022/03/28 01:22:33;;;;;;;14.45;7.35;;;;;;;8.07;45.75;100911.97;4455961;32;33476;-76
2022/03/28 01:25:03;;;;;;;12.27;6.18;;;;;;;8.06;45.79;100910.25;4469886;32;33483;-75
2022/03/28 01:27:32;;;;;;;14.70;7.10;;;;;;;7.98;45.71;100899.28;4442758;32;33457;-75
2022/03/28 01:29:59;;;;;;;11.38;6.18;;;;;;;8.04;45.48;100911.44;4468748;32;35181;-75
2022/03/28 01:32:31;;;;;;;13.18;6.90;;;;;;;8.01;45.55;100904.44;4467860;32;34005;-75
2022/03/28 01:35:01;;;;;;;15.20;6.75;;;;;;;7.92;45.74;100902.66;4467866;32;33195;-75
2022/03/28 01:37:28;;;;;;;16.08;7.47;;;;;;;7.84;46.00;100906.19;4455765;32;34418;-75
2022/03/28 01:39:56;;;;;;;13.60;6.57;;;;;;;7.77;46.39;100909.78;4455790;32;35120;-75
2022/03/28 01:42:23;;;;;;;13.07;6.00;;;;;;;7.56;46.98;100900.06;4469647;32;33818;-75
2022/03/28 01:44:53;;;;;;;13.20;5.57;;;;;;;7.58;46.54;100895.31;4468572;32;33228;-75
2022/03/28 01:47:20;;;;;;;13.30;6.53;;;;;;;7.79;45.64;100891.34;4455629;32;33586;-75
2022/03/28 01:49:51;;;;;;;41.13;21.02;;;;;;;7.92;45.03;100883.53;4468299;32;35021;-75
2022/03/28 01:52:18;;;;;;;42.80;19.52;;;;;;;7.93;44.91;100888.84;4468666;32;34173;-75
2022/03/28 01:54:48;;;;;;;32.05;15.25;;;;;;;7.80;45.17;100887.59;4468410;32;33561;-75
2022/03/28 01:57:16;;;;;;;21.80;11.55;;;;;;;7.90;44.93;100891.03;4455701;32;33908;-75
2022/03/28 01:59:46;;;;;;;18.80;8.38;;;;;;;7.80;45.27;100884.84;4455438;32;34059;-75
2022/03/28 02:02:13;;;;;;;14.32;7.43;;;;;;;7.67;45.38;100887.16;4455733;32;32660;-75
2022/03/28 02:04:41;;;;;;;15.73;7.30;;;;;;;7.63;45.43;100883.91;4455617;32;32027;-75
2022/03/28 02:07:08;;;;;;;18.00;8.10;;;;;;;7.78;44.82;100884.16;4455416;32;32290;-75
2022/03/28 02:09:36;;;;;;;21.65;9.13;;;;;;;7.62;44.80;100884.06;4455496;32;33159;-75
2022/03/28 02:12:07;;;;;;;19.00;7.93;;;;;;;7.66;44.68;100879.97;4467993;32;34602;-75
2022/03/28 02:14:34;;;;;;;13.18;6.22;;;;;;;7.73;44.83;100887.38;4469404;32;33513;-75
2022/03/28 02:17:04;;;;;;;11.32;5.93;;;;;;;7.71;44.84;100889.41;4483690;31;33462;-75
2022/03/28 02:19:35;;;;;;;13.13;5.55;;;;;;;7.53;45.28;100886.72;4474433;31;35153;-75
2022/03/28 02:22:05;;;;;;;16.52;6.53;;;;;;;7.59;45.17;100879.78;4460635;31;33420;-75
2022/03/28 02:24:35;;;;;;;15.68;7.82;;;;;;;7.25;45.79;100880.53;4473760;31;34254;-75
2022/03/28 02:27:03;;;;;;;17.20;7.37;;;;;;;7.48;45.32;100878.16;4486154;31;34393;-76
2022/03/28 02:29:30;;;;;;;12.80;6.00;;;;;;;7.56;45.08;100866.44;4486669;31;34027;-75
2022/03/28 02:31:58;;;;;;;12.98;5.90;;;;;;;7.68;44.85;100876.06;4473579;31;32209;-75
2022/03/28 02:34:26;;;;;;;10.13;4.93;;;;;;;7.70;44.64;100875.91;4486222;31;32577;-75
2022/03/28 02:36:58;;;;;;;12.82;5.10;;;;;;;7.63;44.79;100874.84;4486551;31;33704;-75
2022/03/28 02:39:28;;;;;;;10.02;4.97;;;;;;;7.48;44.50;100874.56;4487572;31;34128;-75
2022/03/28 02:41:55;;;;;;;8.77;4.93;;;;;;;7.39;44.65;100873.66;4475639;31;32464;-75
2022/03/28 02:44:23;;;;;;;13.60;4.32;;;;;;;7.53;44.50;100880.41;4475793;31;33390;-75
2022/03/28 02:46:53;;;;;;;9.18;4.35;;;;;;;7.48;44.55;100869.97;4488734;31;34338;-75
2022/03/28 02:49:23;;;;;;;8.95;3.92;;;;;;;7.20;45.17;100873.84;4502844;31;34470;-75
2022/03/28 02:51:50;;;;;;;10.30;3.33;;;;;;;7.41;44.78;100877.06;4475214;31;32497;-75
2022/03/28 02:54:18;;;;;;;7.82;3.45;;;;;;;7.47;44.44;100875.59;4475207;31;31884;-75
2022/03/28 02:56:45;;;;;;;7.82;3.40;;;;;;;7.39;44.38;100867.31;4488356;31;33849;-75
2022/03/28 02:59:13;;;;;;;10.15;4.18;;;;;;;7.48;44.08;100871.84;4487938;31;33841;-75
2022/03/28 03:01:41;;;;;;;12.95;5.03;;;;;;;7.47;44.02;100870.13;4475489;31;34853;-75
2022/03/28 03:04:09;;;;;;;23.00;9.32;;;;;;;7.45;44.00;100864.81;4502502;31;33351;-75
2022/03/28 03:06:36;;;;;;;23.30;10.55;;;;;;;7.35;44.16;100857.75;4488066;31;32219;-75
2022/03/28 03:09:23;;;;;;;21.83;9.70;;;;;;;7.31;44.16;100870.84;4488106;31;34358;-75
2022/03/28 03:11:51;;;;;;;17.05;7.50;;;;;;;7.39;44.29;100872.78;4458747;31;114874;-75
2022/03/28 03:14:19;;;;;;;21.30;8.18;;;;;;;7.25;44.45;100869.62;4475238;31;33384;-75
2022/03/28 03:16:50;;;;;;;20.67;8.95;;;;;;;7.23;44.59;100870.78;4502211;31;34063;-75
2022/03/28 03:19:18;;;;;;;17.10;7.05;;;;;;;7.05;44.79;100865.38;4488584;31;34433;-75
2022/03/28 03:21:46;;;;;;;12.82;6.03;;;;;;;6.95;45.46;100867.34;4475005;31;33323;-75
2022/03/28 03:24:14;;;;;;;11.02;5.32;;;;;;;6.88;45.85;100866.25;4488414;31;33975;-75
2022/03/28 03:26:42;;;;;;;13.70;5.93;;;;;;;7.18;45.21;100865.81;4474905;31;33304;-75
2022/03/28 03:29:12;;;;;;;16.20;8.05;;;;;;;7.17;45.08;100868.69;4502443;31;34543;-75
2022/03/28 03:31:42;;;;;;;20.02;8.38;;;;;;;7.09;45.14;100863.19;4488388;31;33601;-75
2022/03/28 03:34:10;;;;;;;17.37;8.18;;;;;;;7.16;45.00;100851.44;4488004;31;33444;-75
2022/03/28 03:36:38;;;;;;;17.80;8.15;;;;;;;7.17;44.86;100855.03;4488015;31;33519;-75
2022/03/28 03:39:05;;;;;;;19.52;7.97;;;;;;;7.14;45.00;100860.84;4487983;31;35213;-75
2022/03/28 03:41:33;;;;;;;17.50;8.48;;;;;;;7.26;44.81;100863.13;4488021;31;34631;-75
2022/03/28 03:44:03;;;;;;;20.37;8.10;;;;;;;7.18;45.20;100854.03;4474882;31;31906;-75
2022/03/28 03:46:31;;;;;;;17.80;8.05;;;;;;;7.23;44.98;100859.88;4487946;31;33723;-75
2022/03/28 03:49:06;;;;;;;20.58;6.70;;;;;;;7.06;45.28;100855.31;4475438;31;34353;-75
2022/03/28 03:51:33;;;;;;;16.05;6.45;;;;;;;7.11;45.20;100855.72;4474731;31;34654;-75
2022/03/28 03:54:01;;;;;;;12.90;5.68;;;;;;;7.09;45.45;100852.28;4487778;31;34286;-75
2022/03/28 03:56:31;;;;;;;13.18;5.62;;;;;;;7.12;45.50;100852.81;4488013;31;33972;-75
2022/03/28 03:59:02;;;;;;;15.90;6.20;;;;;;;7.15;45.50;100851.63;4475042;31;35215;-75
2022/03/28 04:01:32;;;;;;;22.90;13.60;;;;;;;7.01;45.66;100847.59;4488326;31;34574;-75
2022/03/28 04:04:00;;;;;;;33.13;19.83;;;;;;;7.09;45.53;100849.53;4487876;31;33239;-75
2022/03/28 04:06:27;;;;;;;26.00;13.45;;;;;;;7.12;45.54;100847.34;4487615;31;33254;-75
2022/03/28 04:08:55;;;;;;;23.35;11.40;;;;;;;7.12;45.31;100849.22;4474875;31;35261;-75
2022/03/28 04:11:23;;;;;;;19.15;9.38;;;;;;;7.14;45.49;100858.97;4487919;31;33610;-75
2022/03/28 04:13:53;;;;;;;13.35;6.75;;;;;;;7.11;45.49;100852.97;4487928;31;34255;-75
2022/03/28 04:16:20;;;;;;;11.70;5.50;;;;;;;6.99;45.62;100848.78;4474492;31;34404;-75
2022/03/28 04:18:48;;;;;;;12.68;6.22;;;;;;;6.77;46.12;100850.97;4501026;31;34409;-75
2022/03/28 04:21:15;;;;;;;13.10;5.97;;;;;;;6.91;45.93;100844.09;4474744;31;34140;-75
2022/03/28 04:23:43;;;;;;;15.98;5.93;;;;;;;6.96;45.88;100846.34;4501697;31;34191;-75
2022/03/28 04:26:11;;;;;;;12.65;7.25;;;;;;;6.97;45.63;100848.94;4501933;31;33593;-75
2022/03/28 04:28:38;;;;;;;21.40;8.38;;;;;;;6.86;46.10;100843.72;4474827;31;34486;-75
2022/03/28 04:31:06;;;;;;;14.30;6.22;;;;;;;6.84;45.90;100851.19;4487566;31;34596;-78
2022/03/28 04:33:34;;;;;;;14.48;6.32;;;;;;;6.98;45.53;100844.31;4474851;31;33487;-76
2022/03/28 04:36:01;;;;;;;11.80;6.00;;;;;;;6.86;46.40;100836.38;4474432;31;32362;-75
2022/03/28 04:38:29;;;;;;;12.57;6.12;;;;;;;6.96;46.04;100840.91;4470788;32;34967;-76
2022/03/28 04:40:57;;;;;;;11.70;5.15;;;;;;;6.90;46.11;100832.31;4480646;32;34002;-76
2022/03/28 04:43:24;;;;;;;12.82;5.50;;;;;;;6.69;46.42;100841.84;4459214;32;31833;-75
2022/03/28 04:45:54;;;;;;;12.37;5.20;;;;;;;6.67;46.47;100831.09;4485825;32;34769;-77
2022/03/28 04:48:23;;;;;;;10.23;5.18;;;;;;;6.89;46.37;100838.81;4459013;32;34428;-76
2022/03/28 04:50:51;;;;;;;12.48;5.22;;;;;;;6.83;46.31;100839.44;4459066;32;34609;-76
2022/03/28 04:53:18;;;;;;;10.23;4.62;;;;;;;6.70;46.57;100844.41;4471732;32;33286;-75
2022/03/28 04:55:47;;;;;;;12.80;4.90;;;;;;;6.68;46.56;100849.16;4471323;32;33979;-77
2022/03/28 04:58:17;;;;;;;14.60;5.30;;;;;;;6.81;46.60;100836.00;4445863;32;33016;-76
2022/03/28 05:00:45;;;;;;;15.27;4.70;;;;;;;6.91;46.52;100844.97;4459320;32;34507;-76
2022/03/28 05:03:13;;;;;;;15.23;4.90;;;;;;;6.87;46.40;100843.56;4485348;32;33509;-83
2022/03/28 05:05:41;;;;;;;11.73;5.05;;;;;;;6.87;46.40;100843.56;4444016;32;33214;-77
2022/03/28 05:08:08;;;;;;;12.05;4.95;;;;;;;6.80;46.57;100852.53;4454360;32;33562;-77
2022/03/28 05:10:37;;;;;;;13.77;5.10;;;;;;;6.97;46.07;100845.34;4479847;32;33619;-77
2022/03/28 05:13:04;;;;;;;12.43;5.65;;;;;;;7.07;45.85;100846.97;4484255;32;33944;-77
2022/03/28 05:15:32;;;;;;;13.30;6.60;;;;;;;6.87;46.53;100851.75;4457450;32;32214;-77
2022/03/28 05:18:01;;;;;;;9.70;5.72;;;;;;;6.82;46.64;100845.91;4469813;32;33468;-77
2022/03/28 05:20:28;;;;;;;11.63;5.37;;;;;;;6.93;46.60;100851.13;4458706;32;33007;-77
2022/03/28 05:22:56;;;;;;;15.30;5.37;;;;;;;6.93;46.85;100848.38;4482880;32;33366;-77
2022/03/28 05:25:26;;;;;;;9.18;4.97;;;;;;;6.88;46.96;100844.41;4483467;32;33612;-77
2022/03/28 05:27:56;;;;;;;9.57;4.57;;;;;;;7.10;46.70;100840.34;4469181;32;32928;-77
2022/03/28 05:30:27;;;;;;;10.25;4.82;;;;;;;7.10;46.73;100843.94;4470115;32;33940;-77
2022/03/28 05:32:54;;;;;;;36.42;16.08;;;;;;;7.11;46.92;100839.31;4470819;32;31996;-77
2022/03/28 05:35:22;;;;;;;30.95;15.23;;;;;;;7.40;46.45;100837.13;4470884;32;32334;-77
2022/03/28 05:37:51;;;;;;;32.03;11.15;;;;;;;7.55;46.01;100842.88;4471018;32;33637;-77
2022/03/28 05:40:19;;;;;;;22.42;10.25;;;;;;;7.75;45.82;100840.75;4471229;32;33905;-77
2022/03/28 05:42:47;;;;;;;23.12;11.30;;;;;;;7.92;45.65;100842.53;4471227;32;31850;-77
2022/03/28 05:45:14;;;;;;;23.52;10.65;;;;;;;7.95;45.56;100842.19;4471275;32;33687;-76
2022/03/28 05:47:42;;;;;;;21.05;9.90;;;;;;;8.03;45.50;100844.97;4471225;32;35412;-78
2022/03/28 05:50:10;;;;;;;16.30;8.05;;;;;;;8.14;45.05;100835.62;4471270;32;34012;-78
2022/03/28 05:52:38;;;;;;;22.10;10.57;;;;;;;8.30;45.14;100843.03;4470794;32;34069;-77
2022/03/28 05:55:06;;;;;;;25.50;10.57;;;;;;;8.32;45.12;100844.56;4456944;32;33148;-77
2022/03/28 05:57:34;;;;;;;19.48;9.10;;;;;;;8.48;44.89;100841.91;4470726;32;33018;-77
2022/03/28 06:00:05;;;;;;;24.08;9.65;;;;;;;8.82;44.44;100841.78;4470698;32;32439;-78
2022/03/28 06:02:38;;;;;;;18.23;9.35;;;;;;;8.91;44.44;100838.03;4483821;32;33438;-77
2022/03/28 06:05:07;;;;;;;14.95;8.32;;;;;;;9.08;44.04;100832.56;4471179;32;33912;-78
2022/03/28 06:07:34;;;;;;;17.23;9.77;;;;;;;9.14;43.75;100835.44;4470699;32;34137;-77
2022/03/28 06:10:03;;;;;;;15.70;7.43;;;;;;;9.49;42.69;100828.75;4470865;32;33352;-76
2022/03/28 06:12:31;;;;;;;22.05;8.75;;;;;;;9.98;53.53;100827.72;4470913;32;33913;-78
2022/03/28 06:14:59;;;;;;;25.50;10.13;;;;;;;10.27;42.35;100827.13;4472494;32;32357;-78
2022/03/28 06:17:28;;;;;;;30.00;13.95;;;;;;;10.56;41.05;100828.12;4472641;32;33074;-78
2022/03/28 06:19:57;;;;;;;30.48;12.93;;;;;;;10.67;39.81;100823.28;4472706;32;33846;-78
2022/03/28 06:22:27;;;;;;;26.52;12.48;;;;;;;10.98;39.51;100818.59;4472742;32;31819;-78
2022/03/28 06:24:56;;;;;;;25.52;12.45;;;;;;;10.87;38.18;100822.59;4473067;32;33821;-78
2022/03/28 06:27:24;;;;;;;28.20;10.98;;;;;;;10.91;38.40;100812.12;4459629;32;32893;-78
2022/03/28 06:29:52;;;;;;;23.60;11.05;;;;;;;10.92;38.83;100822.06;4485851;32;33856;-77
2022/03/28 06:32:19;;;;;;;20.80;11.73;;;;;;;11.14;38.19;100812.06;4472545;32;34202;-77
2022/03/28 06:34:48;;;;;;;24.00;10.23;;;;;;;11.38;38.12;100814.59;4459692;32;32171;-78
2022/03/28 06:37:16;;;;;;;16.55;10.13;;;;;;;11.78;36.97;100809.72;4485674;32;34540;-78
2022/03/28 06:39:43;;;;;;;22.98;10.18;;;;;;;12.19;35.67;100815.59;4472607;32;32519;-78
2022/03/28 06:42:11;;;;;;;23.50;10.35;;;;;;;12.35;36.67;100807.09;4485342;32;33271;-78
2022/03/28 06:44:39;;;;;;;17.12;9.80;;;;;;;12.64;36.25;100800.66;4472472;32;32272;-78
2022/03/28 06:47:09;;;;;;;21.85;9.60;;;;;;;12.92;34.97;100808.12;4472226;32;32957;-78
2022/03/28 06:49:37;;;;;;;15.27;8.90;;;;;;;13.28;34.26;100808.06;4472680;32;34778;-78
2022/03/28 06:52:06;;;;;;;31.40;12.55;;;;;;;13.66;34.48;100801.12;4472452;32;33294;-77
2022/03/28 06:54:34;;;;;;;11.75;5.87;;;;;;;13.93;29.94;100796.63;4472628;32;34723;-78
2022/03/28 06:57:04;;;;;;;15.82;7.85;;;;;;;14.24;27.88;100798.06;4472491;32;32915;-78
2022/03/28 06:59:35;;;;;;;11.20;4.93;;;;;;;14.45;27.81;100796.03;4472079;32;33412;-78
2022/03/28 07:02:05;;;;;;;14.98;6.68;;;;;;;14.43;25.77;100794.53;4472627;32;32466;-78
2022/03/28 07:04:33;;;;;;;16.15;7.53;;;;;;;14.79;28.63;100789.53;4472592;32;32914;-78
2022/03/28 07:07:01;;;;;;;12.65;5.80;;;;;;;15.10;27.26;100783.38;4456705;32;33011;-78
2022/03/28 07:09:31;;;;;;;13.20;6.32;;;;;;;15.36;27.30;100790.00;4456791;32;33777;-78
2022/03/28 07:11:59;;;;;;;13.68;4.85;;;;;;;15.68;28.12;100777.19;4456893;32;32064;-77
2022/03/28 07:14:29;;;;;;;12.68;5.72;;;;;;;15.87;25.55;100772.69;4456774;32;33680;-78
2022/03/28 07:16:56;;;;;;;11.23;5.65;;;;;;;16.13;27.13;100781.75;4456819;32;35081;-78
2022/03/28 07:19:24;;;;;;;10.27;4.37;;;;;;;16.38;25.23;100778.22;4456881;32;34032;-78
2022/03/28 07:21:52;;;;;;;21.98;8.20;;;;;;;16.53;21.94;100769.63;4456973;32;33200;-77
2022/03/28 07:24:21;;;;;;;15.15;7.60;;;;;;;16.83;26.60;100781.00;4456875;32;32269;-77
2022/03/28 07:26:50;;;;;;;67.03;31.08;;;;;;;17.07;23.82;100769.06;4456286;32;35199;-77
2022/03/28 07:29:22;;;;;;;104.28;49.13;;;;;;;17.19;22.71;100770.03;4469517;32;34288;-77
2022/03/28 07:31:49;;;;;;;63.85;30.48;;;;;;;17.49;23.05;100766.59;4456699;32;34248;-78
2022/03/28 07:34:29;;;;;;;35.67;20.42;;;;;;;17.62;22.30;100766.44;4456595;32;33450;-77
2022/03/28 07:36:58;;;;;;;15.90;6.93;;;;;;;17.84;23.52;100764.09;4456472;32;34135;-77
2022/03/28 07:39:25;;;;;;;9.27;4.70;;;;;;;17.77;21.91;100764.19;4456563;32;32417;-78
2022/03/28 07:41:53;;;;;;;14.65;5.03;;;;;;;18.13;21.53;100765.28;4456798;32;33347;-77
2022/03/28 07:44:25;;;;;;;10.95;5.22;;;;;;;18.25;21.43;100767.00;4457357;32;33978;-77
2022/03/28 07:46:53;;;;;;;14.20;5.20;;;;;;;18.49;21.33;100756.88;4469344;32;35210;-77
2022/03/28 07:49:23;;;;;;;14.68;4.80;;;;;;;18.38;20.92;100761.28;4456584;32;33428;-77
2022/03/28 07:51:59;;;;;;;10.63;4.97;;;;;;;18.53;20.29;100758.09;4469862;32;33270;-77
2022/03/28 07:54:26;;;;;;;12.73;5.20;;;;;;;18.56;20.64;100754.84;4457242;32;33412;-77
2022/03/28 07:56:54;;;;;;;22.50;13.23;;;;;;;18.51;20.88;100753.84;4459422;32;33866;-77
2022/03/28 07:59:23;;;;;;;9.90;5.57;;;;;;;18.77;22.73;100749.88;4472004;32;32633;-78
2022/03/28 08:01:53;;;;;;;12.35;5.37;;;;;;;18.80;21.62;100754.97;4485135;32;32822;-78
2022/03/28 08:04:25;;;;;;;12.32;5.70;;;;;;;19.02;22.16;100753.31;4485132;32;34600;-78
2022/03/28 08:06:53;;;;;;;10.85;5.75;;;;;;;19.09;23.93;100752.13;4459140;32;33872;-79
2022/03/28 08:09:20;;;;;;;11.12;4.97;;;;;;;19.33;21.67;100747.44;4484896;32;33670;-78
2022/03/28 08:11:48;;;;;;;10.75;5.15;;;;;;;19.51;21.13;100743.69;4459247;32;31644;-78
2022/03/28 08:14:16;;;;;;;11.43;5.57;;;;;;;19.55;20.97;100749.63;4472052;32;33771;-78
2022/03/28 08:16:43;;;;;;;12.75;5.72;;;;;;;19.79;21.06;100736.56;4458856;32;33977;-78
2022/03/28 08:19:11;;;;;;;8.73;5.03;;;;;;;19.80;22.03;100747.44;4471853;32;33573;-78
2022/03/28 08:21:39;;;;;;;12.88;5.57;;;;;;;19.90;21.23;100736.53;4472215;32;34057;-78
2022/03/28 08:24:06;;;;;;;14.10;5.78;;;;;;;20.14;21.51;100737.34;4471908;32;31923;-78
2022/03/28 08:26:34;;;;;;;11.63;5.97;;;;;;;20.09;21.27;100739.19;4471888;32;34439;-78
2022/03/28 08:29:03;;;;;;;19.33;6.10;;;;;;;20.01;21.49;100735.69;4471902;32;33999;-78
2022/03/28 08:31:31;;;;;;;13.88;7.32;;;;;;;20.25;22.77;100730.00;4459210;32;31935;-78
2022/03/28 08:33:59;;;;;;;16.25;7.95;;;;;;;20.42;21.57;100730.97;4472048;32;33397;-78
2022/03/28 08:36:27;;;;;;;15.60;6.87;;;;;;;20.50;22.67;100722.19;4471215;32;34332;-78
2022/03/28 08:38:58;;;;;;;15.88;6.25;;;;;;;20.70;23.11;100728.16;4471624;32;32349;-78
2022/03/28 08:41:27;;;;;;;11.23;6.50;;;;;;;20.93;22.48;100723.53;4471970;32;31870;-78
2022/03/28 08:43:56;;;;;;;13.35;6.53;;;;;;;21.03;21.28;100715.34;4471984;32;32305;-78
2022/03/28 08:46:30;;;;;;;16.85;6.82;;;;;;;21.09;22.68;100719.06;4472491;32;32916;-78
2022/03/28 08:48:59;;;;;;;14.40;6.75;;;;;;;21.17;23.69;100711.13;4471807;32;34897;-78
2022/03/28 08:51:30;;;;;;;13.45;6.53;;;;;;;21.33;22.36;100715.03;4459040;32;32041;-78
2022/03/28 08:53:57;;;;;;;13.48;6.43;;;;;;;21.42;22.60;100707.94;4472236;32;34429;-78
2022/03/28 08:56:25;;;;;;;15.95;7.18;;;;;;;21.56;22.70;100708.37;4471846;32;34287;-78
2022/03/28 08:59:10;;;;;;;12.75;6.30;;;;;;;21.69;22.65;100705.22;4462752;32;32510;-78
2022/03/28 09:01:38;;;;;;;11.52;6.60;;;;;;;21.90;22.80;100697.97;4471850;32;31927;-78
2022/03/28 09:04:08;;;;;;;26.10;15.23;;;;;;;22.24;22.24;100701.50;4471917;32;33693;-78
2022/03/28 09:06:40;;;;;;;11.15;7.10;;;;;;;22.30;22.21;100692.06;4485009;32;34461;-78
2022/03/28 09:09:10;;;;;;;45.60;29.20;;;;;;;22.18;22.92;100695.00;4484976;32;33894;-78
2022/03/28 09:11:42;;;;;;;18.17;7.20;;;;;;;22.20;22.88;100695.59;4471743;32;31937;-78
2022/03/28 09:14:24;;;;;;;12.90;6.60;;;;;;;22.43;22.50;100688.88;4471502;32;32422;-78
2022/03/28 09:17:10;;;;;;;12.35;6.70;;;;;;;22.56;22.16;100685.66;4484324;32;34407;-78
2022/03/28 09:19:55;;;;;;;;;;;;;;;22.57;22.01;100689.28;4471862;32;33790;-78
2022/03/28 09:22:35;;;;;;;18.30;6.03;;;;;;;22.67;21.82;100687.44;4472173;32;33196;-78
2022/03/28 09:25:09;;;;;;;11.77;6.03;;;;;;;22.87;21.53;100677.56;4471826;32;33800;-78
2022/03/28 09:27:40;;;;;;;11.30;5.87;;;;;;;22.97;21.13;100677.66;4471611;32;33013;-78
2022/03/28 09:30:11;;;;;;;18.58;6.22;;;;;;;23.03;21.51;100671.00;4471439;32;33566;-78
2022/03/28 09:32:47;;;;;;;13.95;6.15;;;;;;;23.10;20.90;100666.00;4484380;32;31896;-78
2022/03/28 09:35:21;;;;;;;10.75;6.37;;;;;;;23.37;21.16;100659.50;4471756;32;33608;-79
2022/03/28 09:38:02;;;;;;;11.00;5.77;;;;;;;23.75;20.94;100653.56;4471522;32;34708;-78
2022/03/28 09:40:43;;;;;;;10.15;5.50;;;;;;;23.87;21.34;100651.38;4472022;32;33886;-79
2022/03/28 09:43:31;;;;;;;12.88;6.05;;;;;;;24.05;21.72;100646.41;4458711;32;33053;-79
2022/03/28 09:45:59;;;;;;;13.48;6.05;;;;;;;24.48;21.15;100634.75;4471266;32;33301;-79
2022/03/28 09:48:28;;;;;;;12.82;5.65;;;;;;;24.63;20.66;100637.59;4471114;32;34290;-79
2022/03/28 09:50:55;;;;;;;9.98;6.28;;;;;;;24.71;20.80;100635.31;4484316;32;33923;-79
2022/03/28 09:53:26;;;;;;;11.02;6.40;;;;;;;24.78;20.81;100628.31;4471134;32;32981;-79
2022/03/28 09:55:57;;;;;;;12.25;6.37;;;;;;;24.94;20.45;100632.81;4484294;32;33889;-79
2022/03/28 09:58:48;;;;;;;15.23;6.12;;;;;;;24.94;21.02;100629.16;4470979;32;34372;-79
2022/03/28 10:01:17;;;;;;;13.20;6.78;;;;;;;24.53;21.58;100626.34;4484420;32;34104;-79
2022/03/28 10:03:47;;;;;;;13.18;6.12;;;;;;;24.51;21.39;100622.12;4471206;32;34046;-79
2022/03/28 10:06:19;;;;;;;10.32;5.78;;;;;;;24.58;21.75;100611.47;4460554;32;34575;-79
2022/03/28 10:08:48;;;;;;;11.63;6.07;;;;;;;25.01;21.41;100614.88;4458271;32;32951;-79
2022/03/28 10:11:18;;;;;;;11.52;6.50;;;;;;;24.90;20.53;100599.94;4471292;32;33970;-79
2022/03/28 10:13:46;;;;;;;11.55;5.62;;;;;;;25.07;20.64;100608.12;4471101;32;31966;-79
2022/03/28 10:16:15;;;;;;;12.02;5.85;;;;;;;25.07;21.57;100597.72;4470812;32;34013;-79
2022/03/28 10:18:47;;;;;;;10.98;6.60;;;;;;;24.93;21.18;100599.37;4483914;32;34102;-79
2022/03/28 10:21:26;;;;;;;10.15;5.53;;;;;;;25.18;20.92;100592.94;4471359;32;33829;-80
2022/03/28 10:24:14;;;;;;;8.50;5.78;;;;;;;25.67;20.47;100593.09;4470786;32;31468;-79
2022/03/28 10:26:49;;;;;;;11.20;5.87;;;;;;;25.59;21.29;100573.97;4471208;32;33535;-79
2022/03/28 10:29:21;;;;;;;9.95;5.28;;;;;;;25.70;20.64;100574.81;4471014;32;34372;-79
2022/03/28 10:31:53;;;;;;;10.38;5.50;;;;;;;25.57;21.50;100579.87;4471016;32;34158;-80
2022/03/28 10:34:52;;;;;;;8.05;5.53;;;;;;;25.82;20.90;100564.06;4471614;32;31921;-79
2022/03/28 10:37:38;;;;;;;10.73;5.22;;;;;;;25.83;20.46;100560.13;4470659;32;34620;-79
2022/03/28 10:40:14;;;;;;;12.95;7.65;;;;;;;25.72;21.01;100553.72;4483519;32;34253;-79
2022/03/28 10:42:52;;;;;;;13.05;6.18;;;;;;;25.84;21.24;100550.56;4483518;32;33999;-78
2022/03/28 10:45:21;;;;;;;13.77;5.85;;;;;;;25.49;21.20;100535.50;4483505;32;33072;-76
2022/03/28 10:47:53;;;;;;;8.85;5.30;;;;;;;25.66;21.00;100538.00;4483459;32;33357;-83
2022/03/28 10:50:26;;;;;;;9.50;5.55;;;;;;;24.88;21.37;100544.06;4470776;32;34391;-80
2022/03/28 10:53:15;;;;;;;8.48;5.47;;;;;;;24.70;22.77;100541.84;4470444;32;34039;-81
2022/03/28 10:55:53;;;;;;;10.57;4.68;;;;;;;24.70;23.30;100541.03;4470404;32;32996;-81
2022/03/28 10:58:32;;;;;;;10.27;5.32;;;;;;;24.44;23.25;100527.00;4470313;32;33475;-81
2022/03/28 11:01:05;;;;;;;9.25;5.50;;;;;;;24.46;23.33;100521.09;4471595;32;32801;-81
2022/03/28 11:03:53;;;;;;;8.90;5.55;;;;;;;24.81;23.05;100520.22;4468633;32;32425;-81
2022/03/28 11:06:43;;;;;;;13.62;5.03;;;;;;;24.50;23.58;100511.00;4456984;32;33875;-81
2022/03/28 11:09:11;;;;;;;8.90;4.72;;;;;;;24.33;23.64;100508.47;4456754;32;32494;-84
2022/03/28 11:11:56;;;;;;;10.85;5.07;;;;;;;24.13;24.19;100498.03;4456835;32;32620;-82
2022/03/28 11:14:44;;;;;;;9.55;4.90;;;;;;;24.44;24.08;100486.88;4444272;32;32563;-83
2022/03/28 11:17:25;;;;;;;11.80;4.95;;;;;;;24.57;23.50;100489.09;4456891;32;32067;-83
2022/03/28 11:20:12;;;;;;;8.68;4.50;;;;;;;24.38;23.41;100482.38;4457132;32;33856;-83
2022/03/28 11:22:47;;;;;;;9.15;4.32;;;;;;;24.66;25.63;100476.19;4444428;32;33870;-83
2022/03/28 11:25:31;;;;;;;;;;;;;;;24.67;23.55;100477.03;4458517;32;33846;-78
2022/03/28 11:28:22;;;;;;;10.32;4.40;;;;;;;24.67;23.96;100461.03;4470133;32;33224;-84
2022/03/28 11:31:11;;;;;;;10.10;4.80;;;;;;;24.11;24.39;100451.75;4469841;32;34439;-84
2022/03/28 11:33:47;;;;;;;10.95;5.03;;;;;;;24.11;24.15;100451.75;4444523;32;34192;-83
2022/03/28 11:36:18;;;;;;;11.45;5.47;;;;;;;24.35;24.23;100438.88;4456964;32;33813;-84
2022/03/28 11:38:55;;;;;;;12.13;5.30;;;;;;;24.39;24.06;100430.75;4444153;32;32198;-84